Nutol, Philippines
Current Conditions -  °F | °C
As of 6:00 AM on Tuesday 23 Dec 2014 (Local Time) from RPMD Reporting Station
Haze Haze  
Wind Chill: 77°   Ceiling: 29000
Heat Index: 78°   Visibility: 6mi
Dew Point: 75°   Wind: 3mph
Humidity: 94%   Direction: 10°N
Pressure: 29.8"   Gusts: NA
Location:  6.19°N, 125.14°E
Report Text: RPMD 222200Z 01003KT 9999 HZ FEW016 BKN290 25/24 Q1009 RMK A2980
Loading
Personal Weather Stations






























Interactive Weather Map New forecast layout! Learn more

10-Day Weather Forecast

Advertisements
Track Severe Weather on mobile